Weather at Melangguane Airport

Public forecast

Using degrees Celsius for public forecast. Weather courtesy of forecast.io.

Closest aviation weather report (METAR) to Melangguane Airport

Closest report is Tawau Airport, 512.4 nm (949.0 km) W.

2024/05/26 17:00 (retrieved 1 hour ago)

WBKW 261700Z VRB03KT 9999 FEW016 26/26 Q1009

Closest aviation forecast (TAF) to Melangguane Airport

Closest forecast is Tawau Airport, 512.4 nm (949.0 km) W.

2024/05/26 18:00 (retrieved 4 minutes ago)

TAF WBKW 261700Z 2618/2718 VRB03KT 9999 FEW016